Time;durP1;ratioP1;P1;durP2;ratioP2;P2;SDS_P1;SDS_P2;PMS_P1;PMS_P2;Temp;Humidity;BMP_temperature;BMP_pressure;BME280_temperature;BME280_humidity;BME280_pressure;Samples;Min_cycle;Max_cycle;Signal;HPM_P1;HPM_P2
2022/05/18 00:00:27;;;;;;;2.63;1.83;;;;;;;21.44;57.57;100861.13;5142210;27;20484;-57
2022/05/18 00:02:55;;;;;;;3.07;1.60;;;;;;;21.35;57.53;100864.19;5131188;27;20440;-57
2022/05/18 00:05:23;;;;;;;2.20;1.20;;;;;;;21.30;57.42;100856.00;5139120;27;20419;-58
2022/05/18 00:07:50;;;;;;;2.70;1.20;;;;;;;20.81;58.48;100863.53;5139849;27;20420;-59
2022/05/18 00:10:18;;;;;;;2.20;1.20;;;;;;;21.08;58.01;100861.19;5129602;27;20407;-57
2022/05/18 00:12:46;;;;;;;2.42;1.27;;;;;;;21.22;57.30;100852.84;5142363;27;20421;-58
2022/05/18 00:15:14;;;;;;;1.55;1.15;;;;;;;21.16;57.73;100857.31;5139078;27;20502;-57
2022/05/18 00:17:41;;;;;;;2.42;1.20;;;;;;;21.20;57.41;100845.81;5132690;27;20414;-59
2022/05/18 00:20:10;;;;;;;1.42;1.10;;;;;;;21.12;57.42;100837.28;5140701;27;20513;-57
2022/05/18 00:22:46;;;;;;;1.10;1.00;;;;;;;21.08;57.10;100845.00;5128506;27;20486;-59
2022/05/18 00:25:13;;;;;;;1.50;1.10;;;;;;;21.06;57.20;100849.81;5139230;27;20415;-57
2022/05/18 00:27:40;;;;;;;3.05;1.10;;;;;;;21.31;56.52;100837.94;5136158;27;20421;-58
2022/05/18 00:30:09;;;;;;;1.58;1.17;;;;;;;21.30;56.46;100837.13;5131306;27;20411;-57
2022/05/18 00:32:36;;;;;;;1.27;1.15;;;;;;;20.95;57.41;100842.56;5143393;27;20845;-57
2022/05/18 00:35:03;;;;;;;1.63;1.20;;;;;;;21.04;57.10;100843.03;5131901;27;20409;-57
2022/05/18 00:37:30;;;;;;;3.17;1.35;;;;;;;21.23;57.10;100844.53;5137339;27;20489;-59
2022/05/18 00:39:59;;;;;;;1.40;1.30;;;;;;;21.31;56.71;100835.25;5138729;27;20416;-60
2022/05/18 00:42:29;;;;;;;2.60;1.30;;;;;;;21.27;56.76;100834.91;5127552;27;20497;-57
2022/05/18 00:44:56;;;;;;;2.55;1.50;;;;;;;21.17;56.76;100829.28;5142141;27;20415;-58
2022/05/18 00:47:23;;;;;;;1.93;1.60;;;;;;;21.10;57.22;100840.19;5127061;27;20514;-57
2022/05/18 00:49:54;;;;;;;3.15;1.70;;;;;;;21.19;56.83;100835.25;5138838;27;20417;-57
2022/05/18 00:52:25;;;;;;;1.83;1.73;;;;;;;20.96;57.60;100836.16;5129797;27;20532;-57
2022/05/18 00:54:54;;;;;;;2.10;1.92;;;;;;;21.16;56.99;100838.44;5112728;27;20409;-57
2022/05/18 00:57:27;;;;;;;2.35;2.00;;;;;;;20.78;58.28;100851.38;5136557;27;20411;-57
2022/05/18 01:00:00;;;;;;;2.70;2.10;;;;;;;21.12;57.38;100850.75;5124967;27;20990;-57
2022/05/18 01:02:36;;;;;;;2.40;2.20;;;;;;;21.08;57.53;100853.09;5115009;27;20502;-57
2022/05/18 01:05:06;;;;;;;3.00;2.38;;;;;;;21.18;57.25;100852.50;5126073;27;20489;-57
2022/05/18 01:07:37;;;;;;;2.90;2.50;;;;;;;21.03;57.62;100861.09;5120815;27;20427;-57
2022/05/18 01:10:06;;;;;;;2.65;2.45;;;;;;;21.20;57.24;100861.19;5126240;27;20577;-58
2022/05/18 01:12:34;;;;;;;3.05;2.40;;;;;;;21.23;57.33;100863.41;5128594;27;20409;-57
2022/05/18 01:15:04;;;;;;;3.63;2.63;;;;;;;21.32;57.33;100856.59;5115460;27;20493;-58
2022/05/18 01:17:35;;;;;;;3.00;2.45;;;;;;;21.30;57.20;100856.00;5112250;28;20449;-57
2022/05/18 01:20:05;;;;;;;2.95;2.50;;;;;;;21.25;57.53;100853.19;5111547;28;20490;-60
2022/05/18 01:22:42;;;;;;;3.30;2.65;;;;;;;21.29;57.12;100845.47;5115706;27;20891;-59
2022/05/18 01:25:24;;;;;;;2.90;2.70;;;;;;;21.30;57.24;100836.28;5116300;27;20481;-59
2022/05/18 01:27:54;;;;;;;4.80;3.00;;;;;;;21.29;57.19;100835.47;5111556;28;21003;-59
2022/05/18 01:30:21;;;;;;;3.15;2.90;;;;;;;21.35;57.11;100839.91;5112000;28;20443;-60
2022/05/18 01:32:51;;;;;;;3.63;2.97;;;;;;;21.30;57.22;100837.13;5112429;28;20408;-60
2022/05/18 01:35:21;;;;;;;3.60;3.05;;;;;;;21.22;57.42;100823.19;5111951;28;20460;-59
2022/05/18 01:37:49;;;;;;;3.30;3.00;;;;;;;21.03;58.05;100823.38;5111794;28;20497;-60
2022/05/18 01:40:26;;;;;;;3.72;3.00;;;;;;;21.13;58.05;100826.25;5111931;28;20503;-59
2022/05/18 01:43:02;;;;;;;3.05;2.85;;;;;;;21.07;58.21;100837.16;5114001;27;20499;-60
2022/05/18 01:45:29;;;;;;;4.72;3.42;;;;;;;21.23;57.92;100830.22;5126023;27;20835;-59
2022/05/18 01:47:55;;;;;;;3.50;3.20;;;;;;;21.20;57.84;100828.81;5119123;27;20510;-59
2022/05/18 01:50:28;;;;;;;3.13;2.92;;;;;;;21.18;57.83;100826.38;5115947;27;20872;-59
2022/05/18 01:52:55;;;;;;;3.92;3.30;;;;;;;21.13;57.87;100820.88;5099555;28;20430;-59
2022/05/18 01:55:23;;;;;;;4.40;3.03;;;;;;;21.03;58.15;100830.59;5114399;27;20411;-59
2022/05/18 01:57:50;;;;;;;3.63;3.33;;;;;;;21.18;58.07;100818.28;5128309;27;20414;-59
2022/05/18 02:00:19;;;;;;;3.63;3.13;;;;;;;21.06;58.25;100813.97;5132044;27;20412;-59
2022/05/18 02:02:46;;;;;;;4.30;3.60;;;;;;;21.12;58.04;100821.09;5132336;27;20489;-60
2022/05/18 02:05:13;;;;;;;4.93;3.70;;;;;;;21.11;58.05;100830.25;5130557;27;20489;-59
2022/05/18 02:07:40;;;;;;;4.00;3.70;;;;;;;20.93;58.60;100844.69;5132015;27;20448;-59
2022/05/18 02:10:08;;;;;;;4.00;3.60;;;;;;;20.83;59.16;100841.75;5130712;27;20977;-59
2022/05/18 02:12:36;;;;;;;4.15;3.75;;;;;;;21.14;58.11;100833.28;5131549;27;20765;-61
2022/05/18 02:15:03;;;;;;;4.30;4.00;;;;;;;20.93;58.66;100839.31;5131977;27;20398;-61
2022/05/18 02:17:32;;;;;;;4.00;3.70;;;;;;;21.08;58.08;100842.31;5130852;27;20402;-59
2022/05/18 02:19:59;;;;;;;5.10;4.20;;;;;;;21.05;58.13;100848.19;5131513;27;20402;-59
2022/05/18 02:22:26;;;;;;;4.13;3.72;;;;;;;20.91;58.69;100846.81;5131642;27;20496;-59
2022/05/18 02:24:53;;;;;;;4.63;4.22;;;;;;;21.05;58.36;100841.97;5131341;27;20501;-59
2022/05/18 02:27:20;;;;;;;6.45;4.10;;;;;;;21.10;58.01;100840.19;5131477;27;20508;-59
2022/05/18 02:29:47;;;;;;;5.95;4.20;;;;;;;20.91;58.43;100842.22;5131688;27;20485;-59
2022/05/18 02:32:15;;;;;;;4.72;4.10;;;;;;;20.68;59.16;100840.34;5131124;27;20497;-60
2022/05/18 02:34:43;;;;;;;6.03;4.47;;;;;;;20.55;59.43;100845.94;5131409;27;20488;-59
2022/05/18 02:37:10;;;;;;;5.97;4.43;;;;;;;20.73;59.16;100839.66;5131301;27;20500;-59
2022/05/18 02:39:37;;;;;;;5.45;4.30;;;;;;;20.74;59.05;100846.69;5131001;27;20828;-59
2022/05/18 02:42:04;;;;;;;8.02;4.75;;;;;;;20.77;58.70;100844.34;5131345;27;20977;-59
2022/05/18 02:44:31;;;;;;;5.87;5.00;;;;;;;20.73;59.01;100843.16;5131088;27;20406;-61
2022/05/18 02:46:59;;;;;;;5.90;5.30;;;;;;;20.70;59.06;100851.72;5131234;27;20924;-60
2022/05/18 02:49:26;;;;;;;6.38;5.60;;;;;;;20.51;59.69;100850.13;5131267;27;20409;-59
2022/05/18 02:51:55;;;;;;;7.80;5.63;;;;;;;20.49;59.74;100858.47;5130533;27;20405;-59
2022/05/18 02:57:08;;;;;;;7.05;6.00;;;;;;;20.81;58.67;100847.38;5130864;27;20455;-59
2022/05/18 02:59:35;;;;;;;7.93;6.47;;;;;;;20.78;58.75;100842.47;5130582;27;20402;-60
2022/05/18 03:02:03;;;;;;;10.20;7.20;;;;;;;20.86;58.92;100846.69;5130771;27;20413;-59
2022/05/18 03:04:31;;;;;;;10.60;7.30;;;;;;;20.98;58.20;100852.91;5130694;27;20501;-59
2022/05/18 03:07:00;;;;;;;8.52;7.28;;;;;;;20.92;58.67;100849.28;5130403;27;20504;-58
2022/05/18 03:09:27;;;;;;;11.10;8.02;;;;;;;21.03;58.26;100852.16;5130629;27;20398;-59
2022/05/18 03:11:55;;;;;;;8.95;7.97;;;;;;;21.05;58.19;100844.66;5130403;27;20497;-60
2022/05/18 03:14:22;;;;;;;11.63;8.77;;;;;;;21.13;58.19;100860.50;5130980;27;20405;-59
2022/05/18 03:16:49;;;;;;;11.05;9.18;;;;;;;21.27;57.60;100858.38;5130575;27;20482;-59
2022/05/18 03:19:16;;;;;;;11.23;9.43;;;;;;;21.30;57.37;100856.00;5129436;27;20974;-59
2022/05/18 03:24:29;;;;;;;12.75;10.13;;;;;;;21.29;57.39;100859.75;5129289;27;20404;-59
2022/05/18 03:26:56;;;;;;;12.98;10.02;;;;;;;21.37;57.25;100861.25;5130055;27;20402;-59
2022/05/18 03:29:23;;;;;;;12.93;10.77;;;;;;;21.37;57.07;100861.25;5130115;27;20821;-59
2022/05/18 03:31:50;;;;;;;14.17;10.83;;;;;;;21.32;57.19;100848.50;5129784;27;20493;-59
2022/05/18 03:34:17;;;;;;;12.38;10.80;;;;;;;21.06;57.97;100857.91;5129377;27;20405;-59
2022/05/18 03:36:44;;;;;;;12.13;10.82;;;;;;;21.20;57.25;100853.91;5130557;27;20497;-59
2022/05/18 03:39:12;;;;;;;13.55;11.40;;;;;;;21.08;57.62;100863.06;5130427;27;20934;-59
2022/05/18 03:41:40;;;;;;;12.33;11.10;;;;;;;21.04;57.68;100862.72;5130278;27;20419;-59
2022/05/18 03:44:08;;;;;;;16.80;10.98;;;;;;;21.23;57.13;100854.47;5130373;27;20405;-59
2022/05/18 03:46:36;;;;;;;15.23;11.60;;;;;;;21.38;56.79;100860.19;5129740;28;20496;-59
2022/05/18 03:49:04;;;;;;;12.48;11.23;;;;;;;21.34;56.98;100849.06;5129046;28;20425;-60
2022/05/18 03:51:32;;;;;;;11.40;10.20;;;;;;;21.31;56.79;100849.53;5129360;28;20405;-59
2022/05/18 03:53:59;;;;;;;10.85;9.60;;;;;;;21.11;57.55;100843.72;5129502;28;20409;-59
2022/05/18 03:56:26;;;;;;;12.95;10.15;;;;;;;21.24;57.03;100837.25;5130377;28;20523;-58
2022/05/18 03:58:55;;;;;;;11.32;10.23;;;;;;;21.11;57.47;100835.66;5130336;28;20405;-59
2022/05/18 04:01:22;;;;;;;11.63;10.40;;;;;;;21.18;57.11;100844.44;5129851;28;20874;-58
2022/05/18 04:03:49;;;;;;;11.60;10.40;;;;;;;20.95;57.48;100853.34;5130048;28;20485;-60
2022/05/18 04:06:17;;;;;;;12.35;10.75;;;;;;;20.86;57.65;100863.66;5129731;28;20966;-59
2022/05/18 04:08:44;;;;;;;13.70;10.88;;;;;;;21.03;57.21;100874.56;5130077;28;20606;-59
2022/05/18 04:11:12;;;;;;;12.63;10.75;;;;;;;21.17;57.06;100878.63;5130069;28;20485;-59
2022/05/18 04:13:40;;;;;;;12.63;10.07;;;;;;;21.10;57.10;100890.59;5129892;28;20489;-59
2022/05/18 04:16:09;;;;;;;11.05;9.52;;;;;;;21.16;56.88;100887.78;5130019;28;20493;-60
2022/05/18 04:18:36;;;;;;;11.25;9.63;;;;;;;21.47;56.25;100887.66;5129669;28;20792;-59
2022/05/18 04:21:04;;;;;;;11.27;10.18;;;;;;;21.38;56.71;100898.78;5129878;28;20496;-59
2022/05/18 04:23:31;;;;;;;11.75;10.07;;;;;;;21.66;55.97;100897.22;5129725;28;20498;-58
2022/05/18 04:25:58;;;;;;;14.05;9.93;;;;;;;21.62;56.06;100890.66;5129745;28;20993;-59
2022/05/18 04:28:25;;;;;;;12.63;9.73;;;;;;;21.76;55.62;100881.22;5129537;28;20512;-59
2022/05/18 04:30:52;;;;;;;10.10;9.10;;;;;;;21.93;55.01;100881.28;5129979;28;20516;-58
2022/05/18 04:33:23;;;;;;;10.13;9.02;;;;;;;21.56;55.87;100886.22;5131037;27;20505;-59
2022/05/18 04:35:50;;;;;;;10.07;8.77;;;;;;;21.90;54.64;100875.56;5132836;27;20488;-60
2022/05/18 04:38:18;;;;;;;10.13;8.45;;;;;;;21.84;55.26;100881.91;5133416;27;20449;-59
2022/05/18 04:40:45;;;;;;;8.98;7.82;;;;;;;21.91;54.92;100880.72;5133758;27;20408;-59
2022/05/18 04:43:12;;;;;;;8.85;7.75;;;;;;;22.48;53.38;100897.91;5133367;27;20911;-59
2022/05/18 04:45:44;;;;;;;11.57;7.70;;;;;;;23.16;51.98;100909.53;5133033;27;20412;-60
2022/05/18 04:48:15;;;;;;;8.65;6.93;;;;;;;23.34;50.42;100910.31;5132954;27;20422;-59
2022/05/18 04:50:43;;;;;;;6.38;5.72;;;;;;;23.12;50.61;100927.31;5133331;27;20410;-59
2022/05/18 04:53:11;;;;;;;7.53;5.40;;;;;;;22.74;50.91;100930.75;5132381;27;20406;-59
2022/05/18 04:55:37;;;;;;;7.97;5.27;;;;;;;22.89;49.87;100931.81;5132562;27;20520;-58
2022/05/18 04:58:05;;;;;;;6.20;4.50;;;;;;;22.96;49.29;100928.94;5132368;27;20402;-59
2022/05/18 05:00:32;;;;;;;6.25;4.80;;;;;;;23.08;49.22;100940.53;5132834;27;20413;-59
2022/05/18 05:03:00;;;;;;;5.60;5.10;;;;;;;22.78;50.03;100948.94;5133487;27;20489;-59
2022/05/18 05:05:28;;;;;;;5.78;4.90;;;;;;;23.17;49.34;100948.19;5133008;27;20489;-59
2022/05/18 05:07:57;;;;;;;7.32;4.63;;;;;;;23.18;49.24;100960.66;5131497;27;20450;-59
2022/05/18 05:10:24;;;;;;;7.82;4.35;;;;;;;24.42;46.55;100964.63;5132573;27;20484;-59
2022/05/18 05:12:51;;;;;;;6.60;3.70;;;;;;;25.15;44.40;100963.31;5132326;27;20497;-59
2022/05/18 05:15:19;;;;;;;6.25;4.10;;;;;;;24.93;45.16;100974.31;5132324;27;20903;-59
2022/05/18 05:17:46;;;;;;;4.70;3.67;;;;;;;24.76;44.75;100974.44;5132814;27;20489;-59
2022/05/18 05:20:14;;;;;;;5.80;3.40;;;;;;;24.78;44.73;100973.09;5132585;27;20918;-60
2022/05/18 05:22:41;;;;;;;4.45;3.30;;;;;;;24.34;45.38;100965.06;5131255;27;20492;-59
2022/05/18 05:25:10;;;;;;;5.10;3.13;;;;;;;23.97;45.43;100968.50;5130850;27;20414;-59
2022/05/18 05:27:37;;;;;;;5.93;3.10;;;;;;;23.64;45.90;100986.47;5130936;27;20406;-60
2022/05/18 05:30:06;;;;;;;6.57;2.90;;;;;;;23.45;46.06;100991.34;5132597;27;20829;-60
2022/05/18 05:32:33;;;;;;;6.22;3.00;;;;;;;23.69;45.35;100991.13;5132974;27;20500;-61
2022/05/18 05:35:00;;;;;;;5.05;3.30;;;;;;;23.37;46.01;100985.53;5132396;27;20831;-61
2022/05/18 05:37:27;;;;;;;6.60;3.40;;;;;;;23.06;46.52;100977.78;5132644;27;20406;-60
2022/05/18 05:39:55;;;;;;;7.40;3.28;;;;;;;22.92;46.89;101011.59;5132496;27;20409;-61
2022/05/18 05:42:23;;;;;;;6.72;3.03;;;;;;;23.61;45.67;101010.50;5132732;27;20413;-60
2022/05/18 05:44:50;;;;;;;4.57;2.60;;;;;;;23.25;46.27;101018.91;5132330;27;20413;-60
2022/05/18 05:47:18;;;;;;;8.57;2.78;;;;;;;23.05;47.04;101015.91;5132516;27;20437;-60
2022/05/18 05:49:45;;;;;;;5.32;2.30;;;;;;;23.08;47.34;101015.41;5132398;27;20425;-60
2022/05/18 05:52:12;;;;;;;4.60;2.40;;;;;;;23.09;47.47;101027.88;5132289;27;20405;-60
2022/05/18 05:54:39;;;;;;;7.30;2.70;;;;;;;23.15;47.01;101042.28;5132268;27;20485;-61
2022/05/18 05:57:06;;;;;;;6.22;2.40;;;;;;;23.27;46.69;101043.84;5132544;27;20399;-60
2022/05/18 05:59:38;;;;;;;4.20;2.20;;;;;;;23.26;46.50;101047.63;5132376;27;20493;-61
2022/05/18 06:02:09;;;;;;;4.20;2.40;;;;;;;23.20;46.51;101045.88;5132713;27;20477;-61
2022/05/18 06:04:37;;;;;;;3.72;2.08;;;;;;;23.00;46.80;101045.53;5132065;27;20964;-60
2022/05/18 06:07:05;;;;;;;5.55;2.33;;;;;;;23.22;46.41;101053.75;5131548;27;20478;-59
2022/05/18 06:09:32;;;;;;;6.18;2.25;;;;;;;23.36;46.04;101054.25;5131851;27;20432;-59
2022/05/18 06:11:59;;;;;;;3.85;1.90;;;;;;;23.21;46.21;101063.75;5131852;27;20501;-59
2022/05/18 06:14:26;;;;;;;3.67;1.88;;;;;;;22.71;47.32;101061.78;5132212;27;20414;-59
2022/05/18 06:16:55;;;;;;;4.72;1.92;;;;;;;22.63;47.74;101068.38;5131601;27;20493;-60
2022/05/18 06:19:22;;;;;;;4.70;2.30;;;;;;;22.45;48.12;101079.38;5131675;27;20978;-59
2022/05/18 06:21:50;;;;;;;6.32;2.30;;;;;;;22.82;47.38;101079.00;5131605;27;20497;-59
2022/05/18 06:24:18;;;;;;;4.78;2.20;;;;;;;22.51;48.03;101083.84;5131872;27;20406;-60
2022/05/18 06:26:45;;;;;;;6.15;2.13;;;;;;;22.52;47.92;101086.28;5131875;27;20417;-60
2022/05/18 06:29:12;;;;;;;5.88;2.47;;;;;;;22.66;48.05;101094.13;5131444;27;20432;-59
2022/05/18 06:31:39;;;;;;;4.10;2.10;;;;;;;22.18;49.11;101104.19;5131513;27;20496;-59
2022/05/18 06:34:08;;;;;;;4.78;2.00;;;;;;;22.42;48.70;101106.88;5131272;27;20410;-60
2022/05/18 06:36:36;;;;;;;6.00;2.00;;;;;;;22.19;48.67;101116.66;5131297;27;20485;-60
2022/05/18 06:39:03;;;;;;;3.72;1.92;;;;;;;22.20;48.56;101125.56;5131786;27;20492;-60
2022/05/18 06:41:31;;;;;;;4.28;1.63;;;;;;;21.82;49.28;101138.50;5131226;27;20993;-59
2022/05/18 06:44:02;;;;;;;4.07;2.00;;;;;;;21.89;49.46;101139.19;5131426;27;20434;-60
2022/05/18 06:46:31;;;;;;;5.17;2.17;;;;;;;21.89;49.79;101136.50;5131324;27;20853;-60
2022/05/18 06:48:58;;;;;;;4.38;1.70;;;;;;;21.86;49.74;101133.44;5130929;27;20426;-60
2022/05/18 06:51:29;;;;;;;6.03;2.25;;;;;;;21.80;49.90;101146.00;5131044;27;20493;-59
2022/05/18 06:53:57;;;;;;;4.30;1.90;;;;;;;21.96;49.46;101155.28;5131049;27;20918;-60
2022/05/18 06:56:26;;;;;;;7.85;1.98;;;;;;;21.76;49.38;101156.44;5130460;27;20791;-60
2022/05/18 06:58:54;;;;;;;3.97;1.75;;;;;;;21.55;49.62;101165.94;5131154;27;20406;-60
2022/05/18 07:01:21;;;;;;;6.80;2.47;;;;;;;21.72;49.37;101176.88;5131067;27;20410;-60
2022/05/18 07:03:48;;;;;;;4.18;2.60;;;;;;;21.86;48.97;101172.09;5129849;27;20406;-61
2022/05/18 07:06:18;;;;;;;2.97;1.77;;;;;;;21.76;49.69;101182.63;5130210;27;20974;-61
2022/05/18 07:08:46;;;;;;;4.20;2.33;;;;;;;21.94;49.65;101184.41;5129918;27;20486;-61
2022/05/18 07:11:13;;;;;;;3.45;1.98;;;;;;;21.99;48.99;101192.63;5130571;27;20490;-60
2022/05/18 07:13:41;;;;;;;8.25;2.50;;;;;;;22.05;49.00;101196.25;5130919;27;20405;-60
2022/05/18 07:16:08;;;;;;;3.30;2.15;;;;;;;21.93;48.73;101199.78;5130721;27;20493;-60
2022/05/18 07:18:36;;;;;;;5.63;1.85;;;;;;;21.88;49.11;101198.84;5130570;27;20497;-59
2022/05/18 07:21:04;;;;;;;4.00;1.90;;;;;;;21.89;49.39;101200.47;5130470;27;20982;-59
2022/05/18 07:23:32;;;;;;;7.33;2.90;;;;;;;22.17;49.17;101212.47;5130567;27;20412;-58
2022/05/18 07:26:01;;;;;;;5.75;2.10;;;;;;;22.42;48.51;101215.75;5130429;27;20493;-59
2022/05/18 07:28:28;;;;;;;4.65;1.98;;;;;;;22.41;48.47;101226.81;5130316;27;20429;-59
2022/05/18 07:30:56;;;;;;;6.18;1.92;;;;;;;22.61;48.22;101229.94;5129538;27;21002;-59
2022/05/18 07:33:24;;;;;;;6.63;2.50;;;;;;;22.95;47.74;101231.97;5129552;27;20410;-58
2022/05/18 07:35:52;;;;;;;7.03;2.10;;;;;;;22.60;48.11;101239.13;5130615;27;20414;-59
2022/05/18 07:38:19;;;;;;;4.13;1.80;;;;;;;22.69;48.18;101239.56;5130345;27;20793;-58
2022/05/18 07:40:48;;;;;;;5.00;2.03;;;;;;;22.75;48.18;101248.59;5130608;27;20418;-58
2022/05/18 07:43:18;;;;;;;3.00;1.77;;;;;;;22.58;48.42;101246.63;5130576;27;20413;-59
2022/05/18 07:45:44;;;;;;;6.15;1.90;;;;;;;22.60;48.20;101254.50;5130200;27;20496;-60
2022/05/18 07:48:12;;;;;;;3.97;1.80;;;;;;;22.43;48.35;101252.50;5130181;28;20891;-59
2022/05/18 07:50:39;;;;;;;4.75;1.88;;;;;;;22.59;47.98;101256.38;5130132;28;20552;-61
2022/05/18 07:53:06;;;;;;;7.85;2.10;;;;;;;22.56;48.39;101269.53;5130519;28;20492;-60
2022/05/18 07:55:33;;;;;;;3.58;1.70;;;;;;;22.63;48.27;101268.34;5130247;28;20416;-60
2022/05/18 07:58:04;;;;;;;5.03;1.98;;;;;;;22.49;48.36;101273.19;5130394;28;20485;-61
2022/05/18 08:00:33;;;;;;;6.47;1.90;;;;;;;22.58;48.11;101273.66;5130483;28;21551;-60
2022/05/18 08:03:00;;;;;;;4.90;1.70;;;;;;;22.64;47.75;101272.69;5130068;28;20489;-60
2022/05/18 08:05:28;;;;;;;3.88;1.60;;;;;;;22.50;47.68;101280.22;5130055;28;20412;-59
2022/05/18 08:07:56;;;;;;;5.82;2.40;;;;;;;22.81;47.24;101293.59;5131031;27;20405;-59
2022/05/18 08:15:55;;;;;;;2.20;1.10;;;;;;;20.26;52.59;101384.22;5134178;27;20450;-60
2022/05/18 08:18:22;;;;;;;6.20;1.15;;;;;;;19.17;54.91;101413.63;5134510;27;20404;-60
2022/05/18 08:20:50;;;;;;;1.75;1.25;;;;;;;19.06;55.84;101396.28;5134330;27;20488;-59
2022/05/18 08:23:18;;;;;;;1.45;1.23;;;;;;;18.49;56.04;101414.69;5134010;27;20764;-60
2022/05/18 08:25:46;;;;;;;2.10;1.20;;;;;;;18.21;56.94;101398.72;5133962;27;20782;-59
2022/05/18 08:28:14;;;;;;;2.00;1.38;;;;;;;17.93;58.20;101415.81;5134247;27;20433;-59
2022/05/18 08:30:42;;;;;;;2.10;1.00;;;;;;;17.73;58.65;101434.44;5134143;27;20416;-59
2022/05/18 08:33:11;;;;;;;1.25;1.10;;;;;;;17.59;59.20;101446.13;5133788;27;20923;-59
2022/05/18 08:35:39;;;;;;;2.05;1.08;;;;;;;17.51;59.69;101449.00;5133771;27;20413;-59
2022/05/18 08:38:07;;;;;;;2.42;0.93;;;;;;;17.41;59.02;101451.19;5134069;27;20424;-58
2022/05/18 08:40:40;;;;;;;1.97;1.37;;;;;;;17.27;58.98;101453.81;5134049;27;20397;-60
2022/05/18 08:43:11;;;;;;;3.10;1.20;;;;;;;17.41;58.46;101454.69;5133894;27;20416;-59
2022/05/18 08:45:43;;;;;;;1.77;1.27;;;;;;;17.58;58.27;101468.63;5133259;27;20911;-59
2022/05/18 08:48:21;;;;;;;1.92;1.02;;;;;;;17.15;59.00;101469.59;5133773;27;20417;-59
2022/05/18 08:50:48;;;;;;;2.25;1.38;;;;;;;17.18;59.48;101490.63;5133642;27;20406;-59
2022/05/18 08:53:34;;;;;;;2.22;1.10;;;;;;;17.08;59.81;101495.50;5133342;27;20496;-59
2022/05/18 08:56:09;;;;;;;1.67;1.10;;;;;;;17.25;59.36;101498.72;5133356;27;20420;-59
2022/05/18 08:58:42;;;;;;;2.42;1.15;;;;;;;16.99;60.07;101489.44;5133268;27;20783;-59
2022/05/18 09:01:15;;;;;;;1.13;1.00;;;;;;;17.36;59.34;101502.72;5133645;27;20441;-60
2022/05/18 09:03:48;;;;;;;2.17;1.10;;;;;;;17.29;58.65;101537.50;5133603;27;20481;-59
2022/05/18 09:06:27;;;;;;;1.90;1.15;;;;;;;16.91;59.33;101515.56;5133578;27;20404;-59
2022/05/18 09:11:48;;;;;;;1.52;1.25;;;;;;;17.09;58.98;101502.53;5133264;27;20467;-59
2022/05/18 09:14:18;;;;;;;1.73;1.00;;;;;;;17.34;58.28;101496.69;5132958;27;20416;-59
2022/05/18 09:16:53;;;;;;;2.53;1.17;;;;;;;17.30;57.19;101535.66;5132916;27;20414;-59
2022/05/18 09:19:30;;;;;;;1.80;0.90;;;;;;;17.31;56.77;101530.09;5132237;27;20802;-59
2022/05/18 09:22:09;;;;;;;1.10;1.00;;;;;;;17.05;57.26;101541.44;5133403;27;20412;-59
2022/05/18 09:24:46;;;;;;;1.35;1.20;;;;;;;17.28;57.33;101541.19;5132779;27;20500;-59
2022/05/18 09:27:33;;;;;;;2.90;1.02;;;;;;;17.28;56.56;101561.81;5132904;27;20416;-60
2022/05/18 09:30:09;;;;;;;2.00;0.95;;;;;;;16.94;56.39;101588.31;5132795;27;20422;-59
2022/05/18 09:32:58;;;;;;;1.60;1.00;;;;;;;16.79;57.04;101553.50;5133054;27;20410;-59
2022/05/18 09:35:43;;;;;;;2.33;1.10;;;;;;;17.00;57.02;101576.00;5132629;27;20398;-59
2022/05/18 09:38:17;;;;;;;2.20;1.10;;;;;;;17.09;57.09;101574.84;5132540;27;20899;-59
2022/05/18 09:40:46;;;;;;;1.92;1.10;;;;;;;17.20;56.25;101571.63;5132551;27;20410;-59
2022/05/18 09:43:19;;;;;;;2.33;1.25;;;;;;;17.11;56.72;101588.06;5132918;27;20515;-59
2022/05/18 09:45:49;;;;;;;2.88;1.15;;;;;;;17.33;56.25;101588.84;5132605;27;20458;-59
2022/05/18 09:48:19;;;;;;;3.42;1.40;;;;;;;17.36;56.35;101593.84;5132792;27;20428;-59
2022/05/18 09:50:50;;;;;;;3.22;1.30;;;;;;;17.52;55.88;101604.28;5132019;27;20422;-60
2022/05/18 09:53:18;;;;;;;2.67;1.20;;;;;;;17.29;56.06;101609.84;5132192;27;20416;-59
2022/05/18 09:55:48;;;;;;;3.42;1.35;;;;;;;17.49;55.92;101609.19;5132609;27;20479;-60
2022/05/18 09:58:20;;;;;;;2.22;1.30;;;;;;;17.26;55.81;101612.09;5132248;27;20907;-59
2022/05/18 10:00:47;;;;;;;1.67;1.20;;;;;;;17.02;57.14;101619.50;5132356;27;20406;-59
2022/05/18 10:09:14;;;;;;;2.92;1.30;;;;;;;16.97;56.08;101617.38;5068617;28;20882;-59
2022/05/18 10:11:43;;;;;;;3.05;1.48;;;;;;;16.68;56.98;101602.19;5121207;27;20779;-58
2022/05/18 10:14:15;;;;;;;2.55;1.17;;;;;;;17.05;55.00;101635.19;5132167;27;20410;-58
2022/05/18 10:16:45;;;;;;;2.40;1.45;;;;;;;17.01;54.44;101628.53;5131250;27;20406;-58
2022/05/18 10:19:18;;;;;;;5.90;1.80;;;;;;;17.44;54.12;101625.03;5131996;27;20406;-59
2022/05/18 10:21:53;;;;;;;2.75;1.20;;;;;;;17.45;53.53;101622.16;5131597;27;20437;-61
2022/05/18 10:24:38;;;;;;;1.92;1.20;;;;;;;17.62;53.21;101636.09;5132027;27;20398;-59
2022/05/18 10:27:10;;;;;;;4.00;1.50;;;;;;;17.23;54.31;101636.59;5131780;27;20414;-58
2022/05/18 10:29:37;;;;;;;2.80;1.20;;;;;;;17.33;53.93;101627.19;5131668;27;20422;-59
2022/05/18 10:32:08;;;;;;;5.07;1.48;;;;;;;17.73;53.05;101646.28;5130449;27;20911;-58
2022/05/18 10:34:43;;;;;;;3.47;1.20;;;;;;;17.37;53.63;101635.69;5131358;27;20911;-59
2022/05/18 10:37:13;;;;;;;2.75;1.30;;;;;;;17.34;53.92;101641.41;5131372;27;20405;-60
2022/05/18 10:39:44;;;;;;;2.58;1.15;;;;;;;17.36;54.53;101644.75;5131457;27;20778;-59
2022/05/18 10:42:17;;;;;;;2.17;1.40;;;;;;;17.70;53.37;101635.97;5131341;27;20409;-59
2022/05/18 10:44:45;;;;;;;2.27;1.40;;;;;;;17.82;52.67;101635.44;5131129;27;20416;-60
2022/05/18 10:47:28;;;;;;;2.50;1.20;;;;;;;17.72;52.67;101641.97;5131430;27;20490;-58
2022/05/18 10:50:20;;;;;;;2.65;1.25;;;;;;;17.72;52.17;101644.66;5131116;27;20960;-59
2022/05/18 10:52:48;;;;;;;4.18;1.30;;;;;;;17.52;52.26;101657.03;5131538;27;20430;-58
2022/05/18 10:55:18;;;;;;;2.78;1.27;;;;;;;17.53;52.08;101656.84;5131035;27;20902;-58
2022/05/18 10:57:55;;;;;;;2.20;1.20;;;;;;;17.53;52.01;101658.72;5130999;27;20929;-60
2022/05/18 11:00:27;;;;;;;2.22;1.20;;;;;;;17.61;51.92;101666.63;5131272;27;20408;-59
2022/05/18 11:03:00;;;;;;;2.90;1.20;;;;;;;17.68;52.15;101672.03;5131161;27;20459;-60
2022/05/18 11:05:38;;;;;;;2.00;1.27;;;;;;;17.65;52.31;101680.50;5131142;27;20405;-59
2022/05/18 11:08:13;;;;;;;4.87;1.40;;;;;;;17.56;52.77;101677.09;5131010;27;20412;-59
2022/05/18 11:10:48;;;;;;;3.38;1.50;;;;;;;17.55;52.81;101675.44;5131046;27;20426;-59
2022/05/18 11:13:23;;;;;;;2.60;1.58;;;;;;;17.62;52.74;101680.88;5131011;27;20410;-60
2022/05/18 11:15:57;;;;;;;1.90;1.40;;;;;;;17.74;52.67;101666.75;5131113;27;20428;-59
2022/05/18 11:18:31;;;;;;;3.38;1.50;;;;;;;17.95;52.31;101670.41;5130539;27;20408;-59
2022/05/18 11:21:09;;;;;;;2.90;1.30;;;;;;;18.15;51.74;101686.69;5130844;27;20500;-59
2022/05/18 11:23:47;;;;;;;2.33;1.30;;;;;;;18.08;51.14;101675.06;5130540;27;20765;-58
2022/05/18 11:26:29;;;;;;;3.05;1.38;;;;;;;18.05;51.40;101678.13;5130953;27;20428;-59
2022/05/18 11:29:05;;;;;;;1.88;1.30;;;;;;;17.72;51.75;101676.00;5130761;27;20414;-59
2022/05/18 11:32:00;;;;;;;3.65;1.42;;;;;;;18.07;51.32;101678.75;5130464;27;20425;-60
2022/05/18 11:34:38;;;;;;;4.15;1.40;;;;;;;18.12;50.70;101703.97;5130492;27;20485;-60
2022/05/18 11:37:22;;;;;;;2.70;1.30;;;;;;;17.89;50.83;101676.56;5130771;27;20416;-59
2022/05/18 11:40:00;;;;;;;3.63;1.57;;;;;;;17.91;50.55;101686.06;5130751;27;20408;-60
2022/05/18 11:42:40;;;;;;;2.63;1.35;;;;;;;17.87;51.29;101673.25;5130100;27;20406;-59
2022/05/18 11:45:19;;;;;;;1.83;1.20;;;;;;;17.47;51.75;101700.53;5130226;27;20412;-60
2022/05/18 11:48:00;;;;;;;2.47;1.42;;;;;;;17.55;51.01;101678.13;5130408;28;20452;-58
2022/05/18 11:50:41;;;;;;;2.55;1.30;;;;;;;17.96;50.11;101683.63;5129819;28;20429;-59
2022/05/18 11:53:26;;;;;;;3.28;1.40;;;;;;;18.18;49.32;101661.28;5130401;28;20410;-58
2022/05/18 11:56:07;;;;;;;2.67;1.40;;;;;;;18.46;48.57;101690.78;5130561;28;20418;-59